createdAt,value
2023-01-30T00:01:33.562Z,99585.41
2023-01-30T00:04:17.242Z,99573.28
2023-01-30T00:06:49.334Z,99552.47
2023-01-30T00:09:21.031Z,99542.66
2023-01-30T00:11:52.735Z,99538.22
2023-01-30T00:14:24.427Z,99533.13
2023-01-30T00:16:56.117Z,99534.16
2023-01-30T00:19:27.810Z,99531.38
2023-01-30T00:22:02.580Z,99537.31
2023-01-30T00:24:34.481Z,99532.97
2023-01-30T00:27:06.177Z,99531.13
2023-01-30T00:29:37.850Z,99520.44
2023-01-30T00:32:09.518Z,99520.72
2023-01-30T00:34:41.232Z,99517.84
2023-01-30T00:37:13.250Z,99510.91
2023-01-30T00:39:44.914Z,99509.72
2023-01-30T00:42:35.078Z,99503.44
2023-01-30T00:45:25.855Z,99493.63
2023-01-30T00:47:59.415Z,99492.41
2023-01-30T00:50:42.474Z,99495.63
2023-01-30T00:53:17.116Z,99484.53
2023-01-30T00:55:51.345Z,99485.38
2023-01-30T00:58:26.438Z,99481.75
2023-01-30T01:00:58.182Z,99469.34
2023-01-30T01:03:29.833Z,99471.75
2023-01-30T01:06:01.579Z,99468.03
2023-01-30T01:08:33.237Z,99478.13
2023-01-30T01:11:04.999Z,99472.00
2023-01-30T01:13:36.633Z,99461.84
2023-01-30T01:16:08.286Z,99473.97
2023-01-30T01:18:39.965Z,99468.78
2023-01-30T01:21:11.851Z,99460.06
2023-01-30T01:23:43.531Z,99467.56
2023-01-30T01:26:15.297Z,99461.53
2023-01-30T01:28:47.640Z,99449.50
2023-01-30T01:31:20.599Z,99461.44
2023-01-30T01:33:53.017Z,99456.25
2023-01-30T01:36:52.098Z,99464.88
2023-01-30T01:39:18.361Z,99458.66
2023-01-30T01:41:50.063Z,99459.13
2023-01-30T01:44:24.891Z,99452.47
2023-01-30T01:46:58.118Z,99457.13
2023-01-30T01:49:36.641Z,99457.13
2023-01-30T01:52:15.022Z,99462.00
2023-01-30T01:54:58.080Z,99456.28
2023-01-30T01:57:47.036Z,99455.53
2023-01-30T02:00:21.024Z,99456.91
2023-01-30T02:03:02.772Z,99462.69
2023-01-30T02:05:38.737Z,99464.44
2023-01-30T02:08:15.138Z,99445.28
2023-01-30T02:11:00.431Z,99434.69
2023-01-30T02:13:32.526Z,99438.88
2023-01-30T02:16:06.257Z,99433.41
2023-01-30T02:18:41.955Z,99425.78
2023-01-30T02:21:43.502Z,99412.44
2023-01-30T02:24:43.286Z,99411.72
2023-01-30T02:27:43.345Z,99406.31
2023-01-30T02:30:24.052Z,99395.66
2023-01-30T02:33:15.142Z,99387.06
2023-01-30T02:36:04.758Z,99377.94
2023-01-30T02:38:49.181Z,99358.75
2023-01-30T02:41:36.853Z,99357.72
2023-01-30T02:44:27.639Z,99325.47
2023-01-30T02:47:22.058Z,99336.47
2023-01-30T02:50:00.756Z,99333.97
2023-01-30T02:52:34.214Z,99341.56
2023-01-30T02:55:19.032Z,99334.53
2023-01-30T02:57:51.462Z,99322.25
2023-01-30T03:00:55.417Z,99326.53
2023-01-30T03:04:05.130Z,99306.50
2023-01-30T03:06:55.107Z,99298.50
2023-01-30T03:09:39.058Z,99294.88
2023-01-30T03:12:26.265Z,99281.91
2023-01-30T03:15:13.091Z,99283.84
2023-01-30T03:17:47.710Z,99275.97
2023-01-30T03:20:21.860Z,99270.88
2023-01-30T03:22:54.687Z,99276.91
2023-01-30T03:25:29.313Z,99285.53
2023-01-30T03:28:03.530Z,99305.19
2023-01-30T03:30:35.641Z,99301.00
2023-01-30T03:33:14.829Z,99309.41
2023-01-30T03:35:52.694Z,99329.06
2023-01-30T03:38:24.405Z,99333.31
2023-01-30T03:40:56.264Z,99332.25
2023-01-30T03:43:27.926Z,99326.06
2023-01-30T03:45:59.671Z,99326.34
2023-01-30T03:48:34.160Z,99325.09
2023-01-30T03:51:06.444Z,99325.84
2023-01-30T03:53:38.536Z,99326.66
2023-01-30T03:56:10.435Z,99330.28
2023-01-30T03:58:42.179Z,99302.47
2023-01-30T04:01:27.150Z,99282.34
2023-01-30T04:04:07.672Z,99283.16
2023-01-30T04:06:39.463Z,99279.34
2023-01-30T04:09:11.223Z,99261.97
2023-01-30T04:11:49.809Z,99242.84
2023-01-30T04:14:22.562Z,99234.88
2023-01-30T04:17:19.740Z,99217.97
2023-01-30T04:19:54.319Z,99216.28
2023-01-30T04:22:26.105Z,99217.97
2023-01-30T04:24:58.191Z,99216.19
2023-01-30T04:27:32.704Z,99201.31
2023-01-30T04:30:18.712Z,99190.22
2023-01-30T04:32:52.493Z,99174.84
2023-01-30T04:35:27.772Z,99174.53
2023-01-30T04:37:59.393Z,99177.53
2023-01-30T04:40:32.411Z,99170.59
2023-01-30T04:43:04.319Z,99170.81
2023-01-30T04:46:02.129Z,99154.50
2023-01-30T04:48:37.415Z,99144.13
2023-01-30T04:51:09.220Z,99147.13
2023-01-30T04:53:42.590Z,99154.25
2023-01-30T04:56:14.644Z,99147.84
2023-01-30T04:59:06.681Z,99144.59
2023-01-30T05:01:43.642Z,99143.44
2023-01-30T05:04:18.185Z,99143.13
2023-01-30T05:06:49.898Z,99144.91
2023-01-30T05:09:26.173Z,99146.44
2023-01-30T05:11:58.871Z,99151.34
2023-01-30T05:14:30.526Z,99161.28
2023-01-30T05:17:02.215Z,99159.72
2023-01-30T05:19:34.145Z,99166.16
2023-01-30T05:22:05.778Z,99165.41
2023-01-30T05:24:40.213Z,99162.72
2023-01-30T05:27:11.931Z,99163.81
2023-01-30T05:29:43.698Z,99153.88
2023-01-30T05:32:17.254Z,99144.53
2023-01-30T05:34:49.873Z,99142.03
2023-01-30T05:37:22.161Z,99136.19
2023-01-30T05:39:53.852Z,99129.34
2023-01-30T05:42:25.587Z,99135.13
2023-01-30T05:44:57.272Z,99134.19
2023-01-30T05:47:30.978Z,99130.78
2023-01-30T05:50:04.706Z,99109.25
2023-01-30T05:52:39.459Z,99096.78
2023-01-30T05:55:11.143Z,99083.19
2023-01-30T05:57:42.858Z,99084.41
2023-01-30T06:00:16.097Z,99080.84
2023-01-30T06:02:47.804Z,99099.16
2023-01-30T06:05:22.069Z,99094.53
2023-01-30T06:07:53.750Z,99076.03
2023-01-30T06:10:28.541Z,99082.06
2023-01-30T06:13:00.014Z,99071.22
2023-01-30T06:15:31.691Z,99062.34
2023-01-30T06:18:03.392Z,99033.88
2023-01-30T06:20:35.161Z,99023.16
2023-01-30T06:23:06.852Z,99033.28
2023-01-30T06:25:38.511Z,99028.56
2023-01-30T06:28:10.182Z,99031.28
2023-01-30T06:30:42.059Z,99020.44
2023-01-30T06:33:14.244Z,99014.53
2023-01-30T06:35:51.279Z,99020.78
2023-01-30T06:38:22.986Z,99016.06
2023-01-30T06:41:01.587Z,99012.75
2023-01-30T06:43:33.467Z,99010.50
2023-01-30T06:46:05.480Z,99006.13
2023-01-30T06:48:39.803Z,99009.34
2023-01-30T06:51:11.568Z,99006.16
2023-01-30T06:53:43.248Z,99006.03
2023-01-30T06:56:14.881Z,98995.53
2023-01-30T06:58:46.505Z,99005.94
2023-01-30T07:01:19.419Z,99000.38
2023-01-30T07:03:51.137Z,98999.81
2023-01-30T07:06:22.892Z,99006.28
2023-01-30T07:08:56.330Z,99007.50
2023-01-30T07:11:28.164Z,99004.63
2023-01-30T07:13:59.853Z,98988.94
2023-01-30T07:16:31.656Z,98979.00
2023-01-30T07:19:06.226Z,98975.19
2023-01-30T07:21:37.890Z,98976.13
2023-01-30T07:24:09.566Z,98967.84
2023-01-30T07:26:41.299Z,98974.13
2023-01-30T07:29:13.010Z,98961.25
2023-01-30T07:31:44.757Z,98959.09
2023-01-30T07:34:16.402Z,98953.31
2023-01-30T07:36:50.033Z,98941.59
2023-01-30T07:39:21.780Z,98933.78
2023-01-30T07:41:55.898Z,98907.25
2023-01-30T07:44:30.065Z,98894.59
2023-01-30T07:47:01.947Z,98901.50
2023-01-30T07:49:36.144Z,98909.59
2023-01-30T07:52:08.148Z,98921.19
2023-01-30T07:54:39.787Z,98915.69
2023-01-30T07:57:11.451Z,98892.28
2023-01-30T07:59:43.216Z,98900.78
2023-01-30T08:02:14.873Z,98903.53
2023-01-30T08:04:46.644Z,98901.25
2023-01-30T08:07:18.756Z,98901.94
2023-01-30T08:09:50.469Z,98901.50
2023-01-30T08:12:22.194Z,98893.94
2023-01-30T08:14:54.000Z,98892.50
2023-01-30T08:17:25.702Z,98885.88
2023-01-30T08:19:57.405Z,98882.59
2023-01-30T08:22:32.275Z,98893.38
2023-01-30T08:25:08.573Z,98895.28
2023-01-30T08:27:40.243Z,98890.44
2023-01-30T08:30:12.899Z,98905.94
2023-01-30T08:32:44.633Z,98898.25
2023-01-30T08:35:17.731Z,98894.03
2023-01-30T08:37:49.495Z,98903.34
2023-01-30T08:40:21.459Z,98881.94
2023-01-30T08:42:54.364Z,98883.59
2023-01-30T08:45:26.050Z,98882.63
2023-01-30T08:48:04.512Z,98880.59
2023-01-30T08:50:36.375Z,98865.22
2023-01-30T08:53:11.470Z,98871.97
2023-01-30T08:55:44.682Z,98868.53
2023-01-30T08:58:16.359Z,98858.00
2023-01-30T09:00:49.545Z,98862.94
2023-01-30T09:03:21.434Z,98855.44
2023-01-30T09:05:56.529Z,98858.53
2023-01-30T09:08:31.131Z,98859.81
2023-01-30T09:11:05.691Z,98864.91
2023-01-30T09:13:38.850Z,98854.34
2023-01-30T09:16:11.597Z,98846.84
2023-01-30T09:18:44.532Z,98832.72
2023-01-30T09:21:16.369Z,98857.72
2023-01-30T09:23:48.006Z,98859.38
2023-01-30T09:26:19.702Z,98845.00
2023-01-30T09:28:51.452Z,98838.44
2023-01-30T09:31:23.318Z,98836.25
2023-01-30T09:33:55.054Z,98835.16
2023-01-30T09:36:26.695Z,98848.25
2023-01-30T09:38:58.321Z,98843.03
2023-01-30T09:42:24.655Z,98832.06
2023-01-30T09:45:05.547Z,98844.19
2023-01-30T09:48:04.217Z,98829.78
2023-01-30T09:50:44.828Z,98838.44
2023-01-30T09:53:32.068Z,98830.78
2023-01-30T09:56:04.112Z,98843.00
2023-01-30T09:58:57.986Z,98843.38
2023-01-30T10:01:53.264Z,98832.09
2023-01-30T10:04:33.182Z,98829.25
2023-01-30T10:07:10.573Z,98822.34
2023-01-30T10:10:29.207Z,98833.44
2023-01-30T10:13:19.595Z,98809.44
2023-01-30T10:16:01.472Z,98809.44
2023-01-30T10:19:11.414Z,98799.94
2023-01-30T10:21:52.299Z,98801.03
2023-01-30T10:24:52.332Z,98801.31
2023-01-30T10:27:25.769Z,98801.84
2023-01-30T10:30:05.413Z,98799.94
2023-01-30T10:32:46.978Z,98790.22
2023-01-30T10:35:22.431Z,98778.56
2023-01-30T10:38:19.049Z,98777.06
2023-01-30T10:41:08.058Z,98805.94
2023-01-30T10:43:53.357Z,98794.97
2023-01-30T10:46:43.668Z,98779.00
2023-01-30T10:49:49.923Z,98770.91
2023-01-30T10:52:36.416Z,98777.66
2023-01-30T10:55:36.868Z,98772.69
2023-01-30T10:58:26.474Z,98790.16
2023-01-30T11:01:04.390Z,98788.50
2023-01-30T11:03:42.358Z,98772.97
2023-01-30T11:06:26.544Z,98769.13
2023-01-30T11:08:58.191Z,98768.44
2023-01-30T11:11:48.856Z,98748.66
2023-01-30T11:14:21.077Z,98750.69
2023-01-30T11:16:57.796Z,98741.59
2023-01-30T11:19:37.563Z,98743.25
2023-01-30T11:22:14.704Z,98729.19
2023-01-30T11:24:46.639Z,98737.03
2023-01-30T11:27:29.147Z,98733.44
2023-01-30T11:30:14.724Z,98739.56
2023-01-30T11:32:50.773Z,98739.56
2023-01-30T11:35:30.722Z,98729.69
2023-01-30T11:38:28.496Z,98725.59
2023-01-30T11:41:05.963Z,98718.00
2023-01-30T11:43:39.971Z,98711.25
2023-01-30T11:46:16.162Z,98704.88
2023-01-30T11:49:02.579Z,98700.78
2023-01-30T11:51:54.433Z,98696.38
2023-01-30T11:54:34.465Z,98707.63
2023-01-30T11:57:11.879Z,98682.50
2023-01-30T11:59:48.633Z,98684.56
2023-01-30T12:02:23.616Z,98686.50
2023-01-30T12:05:01.598Z,98673.75
2023-01-30T12:07:37.786Z,98671.47
2023-01-30T12:10:27.967Z,98664.53
2023-01-30T12:13:21.719Z,98656.31
2023-01-30T12:16:19.920Z,98650.63
2023-01-30T12:19:30.510Z,98644.00
2023-01-30T12:22:21.744Z,98648.06
2023-01-30T12:25:30.741Z,98654.91
2023-01-30T12:28:15.070Z,98645.75
2023-01-30T12:30:52.749Z,98663.25
2023-01-30T12:33:29.898Z,98665.03
2023-01-30T12:36:25.896Z,98660.34
2023-01-30T12:39:03.340Z,98667.91
2023-01-30T12:42:23.721Z,98673.09
2023-01-30T12:45:03.202Z,98686.56
2023-01-30T12:47:37.597Z,98685.88
2023-01-30T12:50:27.833Z,98682.81
2023-01-30T12:53:21.977Z,98689.84
2023-01-30T12:56:14.886Z,98681.53
2023-01-30T12:59:09.758Z,98683.59
2023-01-30T13:02:15.155Z,98690.47
2023-01-30T13:05:06.282Z,98688.72
2023-01-30T13:08:15.647Z,98691.59
2023-01-30T13:11:03.869Z,98681.84
2023-01-30T13:14:16.420Z,98668.63
2023-01-30T13:16:57.875Z,98683.75
2023-01-30T13:19:49.022Z,98669.56
2023-01-30T13:22:22.851Z,98664.28
2023-01-30T13:25:23.401Z,98677.13
2023-01-30T13:28:09.958Z,98665.50
2023-01-30T13:30:44.052Z,98664.78
2023-01-30T13:33:28.580Z,98660.19
2023-01-30T13:36:18.532Z,98667.00
2023-01-30T13:39:00.011Z,98671.66
2023-01-30T13:41:42.241Z,98676.91
2023-01-30T13:44:27.721Z,98684.31
2023-01-30T13:47:11.888Z,98687.59
2023-01-30T13:49:52.694Z,98671.94
2023-01-30T13:52:34.489Z,98662.72
2023-01-30T13:55:06.184Z,98663.38
2023-01-30T13:57:58.549Z,98664.31
2023-01-30T14:00:33.845Z,98656.88
2023-01-30T14:03:08.561Z,98671.91
2023-01-30T14:05:52.894Z,98672.13
2023-01-30T14:08:31.780Z,98685.69
2023-01-30T14:11:37.435Z,98679.28
2023-01-30T14:14:30.124Z,98680.28
2023-01-30T14:17:11.908Z,98690.34
2023-01-30T14:19:59.657Z,98681.28
2023-01-30T14:22:52.598Z,98684.41
2023-01-30T14:25:30.111Z,98683.88
2023-01-30T14:28:01.946Z,98684.75
2023-01-30T14:30:48.713Z,98701.25
2023-01-30T14:33:23.170Z,98699.84
2023-01-30T14:36:00.985Z,98699.88
2023-01-30T14:38:34.385Z,98716.19
2023-01-30T14:41:06.909Z,98705.25
2023-01-30T14:43:41.498Z,98714.88
2023-01-30T14:46:16.216Z,98719.66
2023-01-30T14:48:49.946Z,98717.50
2023-01-30T14:51:53.585Z,98730.34
2023-01-30T14:54:41.746Z,98741.38
2023-01-30T14:57:27.740Z,98734.94
2023-01-30T15:00:17.150Z,98736.75
2023-01-30T15:02:55.922Z,98751.22
2023-01-30T15:05:32.601Z,98748.59
2023-01-30T15:08:13.864Z,98749.19
2023-01-30T15:11:13.032Z,98746.75
2023-01-30T15:14:12.207Z,98746.75
2023-01-30T15:17:13.810Z,98741.50
2023-01-30T15:20:15.066Z,98734.06
2023-01-30T15:23:32.234Z,98736.69
2023-01-30T15:26:24.983Z,98740.56
2023-01-30T15:29:12.237Z,98738.09
2023-01-30T15:31:59.885Z,98736.44
2023-01-30T15:34:34.431Z,98745.28
2023-01-30T15:37:28.983Z,98747.34
2023-01-30T15:40:30.523Z,98750.25
2023-01-30T15:43:39.658Z,98746.94
2023-01-30T15:46:21.648Z,98746.13
2023-01-30T15:49:08.725Z,98743.06
2023-01-30T15:51:40.599Z,98743.94
2023-01-30T15:54:17.677Z,98751.28
2023-01-30T15:56:50.084Z,98744.66
2023-01-30T15:59:31.638Z,98746.75
2023-01-30T16:02:29.478Z,98749.34
2023-01-30T16:05:28.397Z,98748.97
2023-01-30T16:08:17.410Z,98757.91
2023-01-30T16:10:52.547Z,98755.41
2023-01-30T16:13:24.897Z,98761.63
2023-01-30T16:16:10.442Z,98759.44
2023-01-30T16:18:59.071Z,98761.78
2023-01-30T16:21:35.580Z,98764.00
2023-01-30T16:24:24.948Z,98764.81
2023-01-30T16:27:01.691Z,98769.22
2023-01-30T16:29:44.067Z,98783.09
2023-01-30T16:32:15.969Z,98782.13
2023-01-30T16:34:47.682Z,98793.94
2023-01-30T16:37:20.336Z,98784.50
2023-01-30T16:40:14.834Z,98789.72
2023-01-30T16:43:02.770Z,98795.22
2023-01-30T16:45:57.518Z,98791.38
2023-01-30T16:48:35.350Z,98793.44
2023-01-30T16:51:22.733Z,98783.97
2023-01-30T16:53:59.429Z,98795.78
2023-01-30T16:56:35.844Z,98798.25
2023-01-30T16:59:19.923Z,98791.50
2023-01-30T17:01:54.292Z,98804.16
2023-01-30T17:04:29.994Z,98800.72
2023-01-30T17:07:04.650Z,98801.72
2023-01-30T17:09:44.542Z,98793.59
2023-01-30T17:12:30.975Z,98805.81
2023-01-30T17:15:14.578Z,98804.16
2023-01-30T17:17:46.549Z,98810.09
2023-01-30T17:20:18.330Z,98797.84
2023-01-30T17:22:52.964Z,98802.53
2023-01-30T17:25:32.904Z,98800.16
2023-01-30T17:28:06.807Z,98816.41
2023-01-30T17:30:40.136Z,98793.72
2023-01-30T17:33:13.602Z,98802.22
2023-01-30T17:35:45.763Z,98810.88
2023-01-30T17:38:20.419Z,98812.53
2023-01-30T17:40:52.201Z,98811.47
2023-01-30T17:43:25.153Z,98812.81
2023-01-30T17:45:57.752Z,98809.50
2023-01-30T17:48:29.909Z,98812.53
2023-01-30T17:51:01.596Z,98811.31
2023-01-30T17:53:35.265Z,98820.50
2023-01-30T17:56:22.493Z,98816.50
2023-01-30T17:58:56.485Z,98819.25
2023-01-30T18:01:28.974Z,98817.88
2023-01-30T18:04:02.034Z,98837.41
2023-01-30T18:06:34.907Z,98835.88
2023-01-30T18:09:06.912Z,98840.16
2023-01-30T18:11:38.964Z,98846.75
2023-01-30T18:14:10.660Z,98851.84
2023-01-30T18:16:45.843Z,98853.75
2023-01-30T18:19:18.491Z,98860.88
2023-01-30T18:21:50.270Z,98873.00
2023-01-30T18:24:21.908Z,98874.66
2023-01-30T18:26:53.623Z,98856.75
2023-01-30T18:29:25.344Z,98867.63
2023-01-30T18:31:57.831Z,98865.28
2023-01-30T18:34:29.549Z,98863.50
2023-01-30T18:37:01.277Z,98861.28
2023-01-30T18:39:33.450Z,98858.22
2023-01-30T18:42:08.141Z,98864.00
2023-01-30T18:44:39.978Z,98854.09
2023-01-30T18:47:11.685Z,98851.03
2023-01-30T18:49:43.374Z,98865.47
2023-01-30T18:52:15.057Z,98878.41
2023-01-30T18:54:46.819Z,98875.78
2023-01-30T18:57:18.558Z,98879.94
2023-01-30T18:59:52.982Z,98883.06
2023-01-30T19:02:28.716Z,98881.81
2023-01-30T19:05:00.512Z,98887.59
2023-01-30T19:07:32.278Z,98896.28
2023-01-30T19:10:04.435Z,98888.25
2023-01-30T19:12:54.642Z,98890.75
2023-01-30T19:15:41.141Z,98895.53
2023-01-30T19:18:14.997Z,98900.78
2023-01-30T19:20:50.084Z,98906.00
2023-01-30T19:23:26.557Z,98925.84
2023-01-30T19:26:02.513Z,98920.75
2023-01-30T19:28:35.419Z,98918.69
2023-01-30T19:31:09.348Z,98924.81
2023-01-30T19:33:42.094Z,98936.06
2023-01-30T19:36:19.857Z,98936.63
2023-01-30T19:38:52.456Z,98941.94
2023-01-30T19:41:35.529Z,98941.28
2023-01-30T19:44:09.739Z,98952.16
2023-01-30T19:46:42.569Z,98956.03
2023-01-30T19:49:14.377Z,98962.22
2023-01-30T19:51:46.111Z,98961.84
2023-01-30T19:54:24.627Z,98969.97
2023-01-30T19:56:59.789Z,98980.56
2023-01-30T19:59:38.512Z,98983.50
2023-01-30T20:02:10.511Z,98998.38
2023-01-30T20:04:43.469Z,99004.28
2023-01-30T20:07:15.148Z,98996.84
2023-01-30T20:09:46.778Z,99004.94
2023-01-30T20:12:21.369Z,99004.13
2023-01-30T20:14:53.256Z,98998.59
2023-01-30T20:17:25.063Z,99011.78
2023-01-30T20:19:57.442Z,99004.91
2023-01-30T20:22:29.236Z,99006.25
2023-01-30T20:25:00.949Z,99020.88
2023-01-30T20:27:33.187Z,99018.13
2023-01-30T20:30:06.782Z,99029.56
2023-01-30T20:32:38.473Z,99028.72
2023-01-30T20:35:10.672Z,99027.75
2023-01-30T20:37:42.709Z,99034.66
2023-01-30T20:40:14.881Z,99037.28
2023-01-30T20:42:49.883Z,99040.84
2023-01-30T20:45:21.601Z,99054.47
2023-01-30T20:47:53.366Z,99039.72
2023-01-30T20:50:27.459Z,99058.88
2023-01-30T20:53:02.151Z,99051.72
2023-01-30T20:55:34.088Z,99062.19
2023-01-30T20:58:05.756Z,99068.94
2023-01-30T21:00:37.414Z,99083.16
2023-01-30T21:03:09.171Z,99073.38
2023-01-30T21:05:44.076Z,99086.28
2023-01-30T21:08:21.300Z,99098.44
2023-01-30T21:10:54.063Z,99112.78
2023-01-30T21:13:28.642Z,99094.16
2023-01-30T21:16:24.059Z,99109.34
2023-01-30T21:19:01.362Z,99117.88
2023-01-30T21:21:41.305Z,99110.28
2023-01-30T21:24:14.681Z,99121.06
2023-01-30T21:26:50.160Z,99116.78
2023-01-30T21:29:23.787Z,99117.06
2023-01-30T21:32:00.059Z,99117.88
2023-01-30T21:34:33.267Z,99127.25
2023-01-30T21:37:26.372Z,99134.84
2023-01-30T21:40:16.652Z,99136.78
2023-01-30T21:43:07.037Z,99136.50
2023-01-30T21:45:39.174Z,99139.41
2023-01-30T21:48:10.925Z,99131.09
2023-01-30T21:50:42.623Z,99155.78
2023-01-30T21:53:16.319Z,99163.91
2023-01-30T21:55:52.696Z,99165.75
2023-01-30T21:58:24.426Z,99171.63
2023-01-30T22:01:05.154Z,99167.22
2023-01-30T22:03:40.092Z,99163.22
2023-01-30T22:06:11.660Z,99179.50
2023-01-30T22:08:43.423Z,99171.38
2023-01-30T22:11:20.184Z,99163.09
2023-01-30T22:13:52.513Z,99170.53
2023-01-30T22:16:26.835Z,99165.59
2023-01-30T22:19:01.924Z,99175.78
2023-01-30T22:21:37.383Z,99188.97
2023-01-30T22:24:12.324Z,99177.03
2023-01-30T22:26:43.871Z,99194.50
2023-01-30T22:29:18.069Z,99185.53
2023-01-30T22:31:49.888Z,99194.91
2023-01-30T22:34:22.668Z,99193.97
2023-01-30T22:36:54.451Z,99195.88
2023-01-30T22:39:26.455Z,99195.75
2023-01-30T22:42:01.131Z,99191.34
2023-01-30T22:44:32.791Z,99189.69
2023-01-30T22:47:04.662Z,99185.94
2023-01-30T22:49:36.411Z,99191.75
2023-01-30T22:52:11.708Z,99178.25
2023-01-30T22:54:46.430Z,99193.53
2023-01-30T22:57:18.136Z,99194.63
2023-01-30T22:59:51.865Z,99192.00
2023-01-30T23:02:23.553Z,99198.06
2023-01-30T23:04:55.253Z,99192.97
2023-01-30T23:07:27.031Z,99193.69
2023-01-30T23:09:58.705Z,99193.81
2023-01-30T23:12:48.937Z,99192.00
2023-01-30T23:15:20.936Z,99195.88
2023-01-30T23:18:15.510Z,99204.56
2023-01-30T23:20:47.143Z,99200.28
2023-01-30T23:23:21.660Z,99200.41
2023-01-30T23:25:53.308Z,99210.75
2023-01-30T23:28:25.056Z,99223.28
2023-01-30T23:30:56.707Z,99225.75
2023-01-30T23:33:28.406Z,99238.16
2023-01-30T23:36:08.845Z,99239.66
2023-01-30T23:38:41.766Z,99253.69
2023-01-30T23:41:15.847Z,99256.31
2023-01-30T23:43:48.590Z,99252.72
2023-01-30T23:46:25.729Z,99270.22
2023-01-30T23:49:00.166Z,99263.31
2023-01-30T23:51:36.558Z,99269.06
2023-01-30T23:54:09.330Z,99276.25
2023-01-30T23:56:44.276Z,99272.38
2023-01-30T23:59:16.413Z,99267.25
